createdAt,value
2018-10-05T00:01:04.949Z,80.48
2018-10-05T00:03:39.874Z,80.91
2018-10-05T00:06:14.388Z,80.61
2018-10-05T00:08:49.078Z,80.50
2018-10-05T00:11:24.103Z,80.21
2018-10-05T00:13:59.072Z,80.26
2018-10-05T00:16:33.883Z,79.98
2018-10-05T00:19:08.961Z,80.19
2018-10-05T00:21:43.595Z,80.12
2018-10-05T00:24:18.160Z,80.29
2018-10-05T00:26:53.338Z,80.69
2018-10-05T00:29:27.780Z,80.79
2018-10-05T00:32:02.197Z,80.75
2018-10-05T00:34:36.743Z,80.39
2018-10-05T00:37:11.044Z,80.32
2018-10-05T00:39:45.616Z,79.83
2018-10-05T00:42:20.103Z,80.19
2018-10-05T00:44:54.599Z,80.93
2018-10-05T00:47:29.447Z,81.64
2018-10-05T00:50:04.271Z,81.40
2018-10-05T00:52:39.027Z,81.45
2018-10-05T00:55:13.480Z,81.05
2018-10-05T00:57:48.197Z,81.35
2018-10-05T01:00:22.847Z,81.21
2018-10-05T01:02:58.069Z,80.84
2018-10-05T01:05:32.471Z,81.24
2018-10-05T01:08:07.316Z,81.10
2018-10-05T01:10:41.948Z,81.17
2018-10-05T01:13:17.100Z,80.95
2018-10-05T01:15:51.884Z,80.81
2018-10-05T01:18:26.336Z,81.31
2018-10-05T01:21:00.992Z,81.97
2018-10-05T01:23:35.673Z,82.21
2018-10-05T01:26:10.531Z,82.91
2018-10-05T01:28:44.990Z,82.24
2018-10-05T01:31:19.455Z,81.87
2018-10-05T01:33:54.104Z,81.79
2018-10-05T01:36:28.590Z,81.49
2018-10-05T01:39:12.650Z,81.92
2018-10-05T01:41:47.392Z,82.26
2018-10-05T01:44:21.701Z,81.97
2018-10-05T01:46:56.356Z,81.32
2018-10-05T01:49:30.699Z,81.37
2018-10-05T01:52:05.549Z,82.15
2018-10-05T01:54:39.955Z,81.57
2018-10-05T01:57:14.468Z,81.49
2018-10-05T01:59:48.843Z,81.41
2018-10-05T02:02:23.797Z,81.26
2018-10-05T02:04:58.524Z,81.02
2018-10-05T02:07:32.832Z,80.99
2018-10-05T02:10:07.284Z,81.89
2018-10-05T02:12:41.897Z,81.81
2018-10-05T02:15:17.107Z,81.32
2018-10-05T02:17:51.639Z,81.18
2018-10-05T02:20:26.208Z,81.81
2018-10-05T02:23:01.005Z,81.37
2018-10-05T02:25:35.519Z,81.15
2018-10-05T02:28:09.948Z,81.68
2018-10-05T02:30:44.364Z,81.38
2018-10-05T02:33:19.235Z,81.29
2018-10-05T02:35:53.713Z,81.17
2018-10-05T02:38:28.452Z,80.97
2018-10-05T02:41:03.353Z,81.39
2018-10-05T02:43:38.360Z,80.96
2018-10-05T02:46:13.484Z,80.50
2018-10-05T02:48:48.096Z,80.78
2018-10-05T02:51:22.723Z,80.65
2018-10-05T02:53:57.076Z,80.82
2018-10-05T02:56:31.622Z,81.11
2018-10-05T02:59:06.247Z,81.02
2018-10-05T03:01:52.211Z,81.29
2018-10-05T03:04:26.780Z,81.79
2018-10-05T03:07:01.313Z,82.01
2018-10-05T03:09:35.886Z,81.78
2018-10-05T03:12:10.956Z,81.47
2018-10-05T03:14:45.477Z,81.30
2018-10-05T03:17:19.977Z,81.23
2018-10-05T03:19:54.519Z,81.29
2018-10-05T03:22:29.080Z,81.60
2018-10-05T03:25:03.982Z,81.60
2018-10-05T03:27:38.392Z,81.46
2018-10-05T03:30:13.178Z,81.61
2018-10-05T03:32:47.856Z,82.57
2018-10-05T03:35:22.729Z,82.76
2018-10-05T03:37:57.145Z,83.06
2018-10-05T03:40:31.448Z,82.99
2018-10-05T03:43:06.281Z,82.17
2018-10-05T03:45:40.900Z,82.80
2018-10-05T03:48:15.343Z,83.07
2018-10-05T03:50:49.645Z,83.14
2018-10-05T03:53:24.283Z,82.45
2018-10-05T03:55:58.745Z,82.00
2018-10-05T03:58:33.219Z,81.58
2018-10-05T04:01:07.735Z,81.72
2018-10-05T04:03:43.124Z,82.64
2018-10-05T04:06:18.055Z,83.16
2018-10-05T04:08:52.403Z,83.48
2018-10-05T04:11:27.044Z,83.33
2018-10-05T04:14:01.435Z,82.85
2018-10-05T04:16:36.316Z,82.24
2018-10-05T04:19:10.972Z,81.76
2018-10-05T04:21:45.420Z,81.80
2018-10-05T04:24:20.154Z,82.02
2018-10-05T04:26:56.305Z,82.60
2018-10-05T04:29:30.975Z,83.59
2018-10-05T04:32:06.735Z,83.04
2018-10-05T04:34:41.627Z,82.94
2018-10-05T04:37:16.331Z,82.63
2018-10-05T04:39:50.837Z,82.16
2018-10-05T04:42:25.899Z,81.84
2018-10-05T04:45:00.212Z,81.92
2018-10-05T04:47:37.750Z,81.81
2018-10-05T04:50:12.480Z,81.56
2018-10-05T04:52:46.932Z,81.54
2018-10-05T04:55:24.951Z,81.53
2018-10-05T04:57:59.928Z,81.90
2018-10-05T05:00:34.654Z,81.92
2018-10-05T05:03:10.089Z,82.25
2018-10-05T05:05:44.561Z,82.35
2018-10-05T05:08:19.039Z,83.53
2018-10-05T05:10:53.489Z,84.08
2018-10-05T05:13:27.887Z,83.85
2018-10-05T05:16:03.084Z,84.28
2018-10-05T05:18:37.496Z,84.39
2018-10-05T05:21:12.172Z,84.45
2018-10-05T05:23:47.203Z,84.18
2018-10-05T05:26:21.639Z,84.50
2018-10-05T05:28:56.392Z,84.83
2018-10-05T05:31:31.052Z,84.63
2018-10-05T05:34:06.300Z,84.71
2018-10-05T05:36:41.711Z,84.43
2018-10-05T05:39:16.233Z,84.63
2018-10-05T05:41:51.285Z,84.90
2018-10-05T05:44:26.174Z,85.24
2018-10-05T05:47:01.041Z,84.91
2018-10-05T05:49:35.462Z,85.19
2018-10-05T05:52:10.015Z,85.43
2018-10-05T05:54:45.119Z,84.70
2018-10-05T05:57:20.150Z,84.69
2018-10-05T05:59:54.713Z,84.96
2018-10-05T06:02:29.111Z,85.29
2018-10-05T06:05:03.997Z,85.34
2018-10-05T06:07:38.702Z,85.17
2018-10-05T06:10:13.941Z,84.24
2018-10-05T06:12:48.299Z,84.15
2018-10-05T06:15:23.092Z,83.93
2018-10-05T06:17:58.156Z,83.95
2018-10-05T06:20:32.698Z,83.79
2018-10-05T06:23:07.233Z,83.86
2018-10-05T06:25:42.576Z,83.65
2018-10-05T06:28:17.392Z,83.77
2018-10-05T06:30:52.037Z,83.45
2018-10-05T06:33:26.743Z,83.94
2018-10-05T06:36:01.019Z,83.59
2018-10-05T06:38:35.528Z,84.80
2018-10-05T06:41:10.214Z,86.07
2018-10-05T06:43:45.119Z,85.79
2018-10-05T06:46:20.835Z,85.26
2018-10-05T06:48:55.196Z,85.38
2018-10-05T06:51:29.619Z,85.88
2018-10-05T06:54:04.908Z,86.18
2018-10-05T06:56:39.476Z,86.72
2018-10-05T06:59:14.460Z,87.03
2018-10-05T07:01:49.343Z,86.22
2018-10-05T07:04:24.948Z,86.06
2018-10-05T07:06:59.640Z,86.75
2018-10-05T07:09:34.475Z,86.97
2018-10-05T07:12:09.746Z,87.43
2018-10-05T07:14:44.339Z,87.38
2018-10-05T07:17:18.764Z,86.91
2018-10-05T07:19:53.280Z,86.69
2018-10-05T07:22:27.608Z,86.82
2018-10-05T07:25:05.654Z,86.26
2018-10-05T07:28:00.272Z,86.01
2018-10-05T07:30:35.025Z,86.28
2018-10-05T07:33:09.499Z,85.98
2018-10-05T07:35:43.940Z,85.23
2018-10-05T07:38:18.415Z,84.18
2018-10-05T07:40:53.376Z,83.70
2018-10-05T07:43:28.466Z,84.15
2018-10-05T07:46:03.020Z,85.33
2018-10-05T07:48:37.471Z,83.01
2018-10-05T07:51:11.833Z,82.43
2018-10-05T07:53:47.083Z,82.99
2018-10-05T07:56:22.070Z,82.49
2018-10-05T07:58:56.462Z,80.45
2018-10-05T08:01:30.783Z,81.87
2018-10-05T08:04:05.124Z,79.67
2018-10-05T08:06:39.808Z,78.85
2018-10-05T08:09:14.376Z,78.51
2018-10-05T08:11:49.308Z,79.71
2018-10-05T08:14:23.801Z,77.30
2018-10-05T08:16:58.119Z,75.33
2018-10-05T08:19:32.863Z,75.08
2018-10-05T08:22:07.291Z,74.56
2018-10-05T08:24:41.637Z,73.82
2018-10-05T08:27:16.604Z,76.18
2018-10-05T08:29:51.324Z,74.39
2018-10-05T08:32:26.180Z,72.50
2018-10-05T08:35:00.872Z,72.54
2018-10-05T08:37:35.423Z,70.73
2018-10-05T08:40:10.204Z,71.25
2018-10-05T08:42:45.231Z,76.79
2018-10-05T08:45:19.897Z,73.93
2018-10-05T08:47:54.837Z,72.34
2018-10-05T08:50:29.333Z,70.35
2018-10-05T08:53:04.059Z,71.61
2018-10-05T08:55:38.520Z,68.81
2018-10-05T08:58:12.965Z,65.77
2018-10-05T09:00:47.451Z,65.15
2018-10-05T09:03:21.903Z,68.56
2018-10-05T09:05:56.619Z,69.17
2018-10-05T09:08:31.408Z,68.55
2018-10-05T09:11:05.929Z,68.01
2018-10-05T09:13:40.931Z,68.05
2018-10-05T09:16:15.384Z,65.68
2018-10-05T09:18:50.039Z,66.10
2018-10-05T09:21:24.814Z,66.45
2018-10-05T09:23:59.235Z,66.40
2018-10-05T09:26:34.201Z,62.52
2018-10-05T09:29:08.563Z,62.90
2018-10-05T09:31:43.218Z,59.13
2018-10-05T09:34:17.573Z,62.26
2018-10-05T09:36:52.720Z,63.37
2018-10-05T09:39:27.442Z,62.72
2018-10-05T09:42:02.004Z,61.51
2018-10-05T09:44:36.600Z,58.29
2018-10-05T09:47:11.053Z,56.85
2018-10-05T09:49:45.597Z,57.53
2018-10-05T09:52:20.631Z,59.97
2018-10-05T09:54:55.197Z,59.98
2018-10-05T09:57:30.044Z,59.74
2018-10-05T10:00:04.613Z,54.54
2018-10-05T10:02:44.687Z,57.55
2018-10-05T10:05:18.956Z,56.72
2018-10-05T10:07:53.827Z,55.20
2018-10-05T10:10:28.536Z,55.72
2018-10-05T10:13:02.954Z,52.70
2018-10-05T10:15:37.818Z,56.28
2018-10-05T10:18:12.464Z,55.55
2018-10-05T10:20:46.936Z,54.32
2018-10-05T10:23:21.727Z,52.67
2018-10-05T10:25:56.256Z,54.23
2018-10-05T10:28:31.206Z,53.61
2018-10-05T10:31:06.331Z,55.46
2018-10-05T10:33:41.019Z,54.99
2018-10-05T10:36:15.780Z,54.01
2018-10-05T10:38:50.365Z,55.24
2018-10-05T10:41:24.908Z,54.38
2018-10-05T10:43:59.436Z,51.88
2018-10-05T10:46:34.815Z,53.11
2018-10-05T10:49:09.337Z,50.25
2018-10-05T10:51:44.044Z,54.58
2018-10-05T10:54:18.396Z,53.14
2018-10-05T10:56:53.401Z,50.47
2018-10-05T10:59:28.072Z,55.94
2018-10-05T11:02:02.815Z,55.44
2018-10-05T11:04:37.247Z,51.80
2018-10-05T11:07:11.819Z,52.14
2018-10-05T11:09:46.688Z,47.39
2018-10-05T11:12:21.918Z,48.01
2018-10-05T11:14:56.340Z,55.16
2018-10-05T11:17:30.785Z,51.73
2018-10-05T11:20:05.570Z,49.41
2018-10-05T11:22:40.084Z,51.12
2018-10-05T11:25:16.868Z,51.24
2018-10-05T11:27:51.605Z,50.66
2018-10-05T11:30:26.240Z,47.45
2018-10-05T11:33:00.744Z,51.72
2018-10-05T11:35:35.060Z,48.56
2018-10-05T11:38:09.955Z,51.20
2018-10-05T11:40:44.932Z,47.07
2018-10-05T11:43:19.723Z,45.20
2018-10-05T11:45:54.121Z,47.63
2018-10-05T11:48:28.389Z,49.27
2018-10-05T11:51:03.199Z,48.24
2018-10-05T11:53:37.485Z,48.21
2018-10-05T11:56:11.875Z,48.26
2018-10-05T11:58:46.548Z,51.68
2018-10-05T12:01:22.581Z,45.82
2018-10-05T12:03:57.255Z,47.38
2018-10-05T12:06:32.380Z,50.56
2018-10-05T12:09:08.516Z,49.64
2018-10-05T12:11:43.705Z,49.41
2018-10-05T12:14:18.099Z,45.29
2018-10-05T12:16:52.409Z,48.64
2018-10-05T12:19:26.951Z,47.67
2018-10-05T12:22:01.980Z,47.68
2018-10-05T12:24:36.456Z,45.68
2018-10-05T12:27:12.563Z,47.81
2018-10-05T12:29:47.111Z,45.74
2018-10-05T12:32:22.252Z,48.61
2018-10-05T12:34:56.672Z,45.82
2018-10-05T12:37:30.965Z,49.61
2018-10-05T12:40:05.823Z,45.67
2018-10-05T12:42:40.583Z,46.66
2018-10-05T12:45:15.196Z,43.81
2018-10-05T12:47:49.917Z,44.79
2018-10-05T12:50:25.008Z,49.13
2018-10-05T12:52:59.589Z,48.56
2018-10-05T12:55:34.193Z,47.06
2018-10-05T12:58:08.869Z,47.27
2018-10-05T13:00:43.476Z,48.50
2018-10-05T13:03:18.163Z,47.43
2018-10-05T13:05:52.951Z,48.80
2018-10-05T13:08:28.076Z,44.54
2018-10-05T13:11:02.372Z,48.12
2018-10-05T13:13:36.986Z,47.32
2018-10-05T13:16:11.673Z,45.38
2018-10-05T13:18:46.587Z,42.56
2018-10-05T13:21:21.248Z,47.36
2018-10-05T13:23:55.547Z,44.88
2018-10-05T13:26:30.188Z,46.14
2018-10-05T13:29:04.809Z,47.44
2018-10-05T13:31:40.164Z,45.58
2018-10-05T13:34:14.778Z,46.24
2018-10-05T13:36:49.639Z,47.08
2018-10-05T13:39:24.232Z,48.81
2018-10-05T13:41:58.914Z,50.62
2018-10-05T13:44:34.236Z,49.97
2018-10-05T13:47:08.944Z,49.35
2018-10-05T13:49:43.768Z,49.99
2018-10-05T13:52:18.295Z,50.51
2018-10-05T13:54:52.958Z,52.38
2018-10-05T13:57:27.642Z,52.22
2018-10-05T14:00:02.419Z,51.26
2018-10-05T14:02:37.434Z,49.71
2018-10-05T14:05:12.128Z,49.85
2018-10-05T14:07:46.587Z,52.69
2018-10-05T14:10:21.413Z,51.60
2018-10-05T14:12:56.660Z,49.98
2018-10-05T14:15:31.221Z,48.59
2018-10-05T14:18:05.884Z,49.41
2018-10-05T14:20:40.376Z,47.47
2018-10-05T14:23:15.527Z,48.97
2018-10-05T14:25:50.208Z,47.72
2018-10-05T14:28:25.014Z,49.80
2018-10-05T14:30:59.464Z,49.87
2018-10-05T14:33:33.819Z,49.30
2018-10-05T14:36:08.612Z,50.73
2018-10-05T14:38:43.212Z,51.96
2018-10-05T14:41:18.013Z,48.39
2018-10-05T14:43:52.860Z,50.29
2018-10-05T14:46:27.571Z,47.63
2018-10-05T14:49:02.443Z,49.82
2018-10-05T14:51:36.787Z,50.67
2018-10-05T14:54:11.268Z,49.23
2018-10-05T14:56:45.712Z,49.91
2018-10-05T14:59:20.203Z,49.82
2018-10-05T15:01:55.252Z,50.65
2018-10-05T15:04:29.727Z,50.47
2018-10-05T15:07:04.941Z,51.34
2018-10-05T15:09:39.769Z,50.07
2018-10-05T15:12:14.128Z,51.49
2018-10-05T15:14:48.727Z,52.11
2018-10-05T15:17:23.136Z,52.97
2018-10-05T15:19:57.765Z,52.33
2018-10-05T15:22:32.300Z,52.45
2018-10-05T15:25:07.199Z,53.10
2018-10-05T15:27:41.663Z,53.54
2018-10-05T15:30:16.271Z,54.97
2018-10-05T15:32:51.298Z,55.73
2018-10-05T15:35:26.750Z,54.97
2018-10-05T15:38:01.596Z,55.62
2018-10-05T15:40:36.128Z,56.60
2018-10-05T15:43:10.505Z,56.73
2018-10-05T15:45:45.403Z,56.85
2018-10-05T15:48:19.667Z,57.43
2018-10-05T15:50:54.163Z,58.88
2018-10-05T15:53:28.943Z,58.18
2018-10-05T15:56:04.207Z,59.19
2018-10-05T15:58:38.688Z,58.53
2018-10-05T16:01:13.209Z,58.36
2018-10-05T16:03:48.252Z,58.40
2018-10-05T16:06:22.888Z,59.91
2018-10-05T16:08:57.355Z,58.90
2018-10-05T16:11:31.825Z,60.18
2018-10-05T16:14:07.303Z,60.67
2018-10-05T16:16:41.869Z,61.50
2018-10-05T16:19:16.772Z,62.98
2018-10-05T16:21:51.512Z,63.04
2018-10-05T16:24:42.462Z,64.03
2018-10-05T16:27:17.925Z,65.50
2018-10-05T16:29:56.862Z,66.78
2018-10-05T16:32:32.502Z,67.72
2018-10-05T16:35:07.734Z,68.18
2018-10-05T16:37:43.839Z,67.90
2018-10-05T16:40:18.743Z,67.64
2018-10-05T16:42:54.525Z,69.29
2018-10-05T16:45:29.008Z,70.05
2018-10-05T16:48:04.059Z,70.10
2018-10-05T16:50:38.567Z,70.49
2018-10-05T16:53:13.097Z,70.64
2018-10-05T16:55:47.616Z,71.04
2018-10-05T16:58:22.404Z,71.33
2018-10-05T17:00:57.404Z,71.48
2018-10-05T17:03:32.563Z,71.82
2018-10-05T17:06:07.997Z,72.94
2018-10-05T17:08:44.835Z,73.00
2018-10-05T17:11:20.355Z,72.47
2018-10-05T17:13:54.971Z,73.70
2018-10-05T17:16:29.729Z,75.00
2018-10-05T17:19:04.767Z,74.27
2018-10-05T17:21:39.226Z,74.98
2018-10-05T17:24:13.855Z,75.05
2018-10-05T17:26:48.680Z,75.71
2018-10-05T17:29:24.310Z,75.88
2018-10-05T17:31:58.869Z,75.99
2018-10-05T17:34:33.534Z,75.90
2018-10-05T17:37:08.588Z,75.21
2018-10-05T17:39:42.969Z,73.95
2018-10-05T17:42:17.775Z,75.16
2018-10-05T17:44:52.184Z,75.06
2018-10-05T17:47:27.115Z,75.21
2018-10-05T17:50:01.756Z,75.79
2018-10-05T17:52:36.841Z,75.44
2018-10-05T17:55:11.757Z,75.62
2018-10-05T17:57:46.732Z,76.05
2018-10-05T18:00:21.061Z,75.37
2018-10-05T18:02:55.479Z,76.16
2018-10-05T18:05:30.505Z,76.16
2018-10-05T18:08:04.986Z,76.71
2018-10-05T18:10:39.799Z,76.09
2018-10-05T18:13:14.859Z,75.72
2018-10-05T18:15:49.292Z,75.87
2018-10-05T18:18:23.950Z,76.15
2018-10-05T18:20:58.784Z,76.03
2018-10-05T18:23:33.329Z,76.66
2018-10-05T18:26:08.277Z,75.99
2018-10-05T18:28:43.004Z,76.89
2018-10-05T18:31:17.575Z,76.77
2018-10-05T18:33:52.228Z,76.89
2018-10-05T18:36:27.416Z,76.53
2018-10-05T18:39:02.457Z,76.51
2018-10-05T18:41:38.832Z,76.73
2018-10-05T18:44:13.340Z,76.62
2018-10-05T18:46:48.031Z,76.42
2018-10-05T18:49:23.205Z,76.44
2018-10-05T18:51:57.552Z,76.58
2018-10-05T18:54:32.567Z,76.52
2018-10-05T18:57:15.206Z,76.52
2018-10-05T18:59:49.980Z,77.33
2018-10-05T19:02:24.761Z,78.72
2018-10-05T19:04:59.068Z,77.99
2018-10-05T19:07:33.872Z,77.72
2018-10-05T19:10:08.823Z,78.34
2018-10-05T19:12:43.312Z,78.14
2018-10-05T19:15:17.752Z,78.93
2018-10-05T19:17:52.751Z,78.46
2018-10-05T19:20:27.384Z,77.87
2018-10-05T19:23:02.081Z,77.92
2018-10-05T19:25:36.681Z,77.97
2018-10-05T19:28:10.947Z,77.50
2018-10-05T19:30:45.640Z,77.68
2018-10-05T19:33:20.180Z,78.02
2018-10-05T19:35:55.317Z,77.80
2018-10-05T19:38:30.423Z,77.78
2018-10-05T19:41:05.197Z,79.04
2018-10-05T19:43:39.948Z,79.67
2018-10-05T19:46:14.856Z,78.51
2018-10-05T19:48:49.340Z,78.18
2018-10-05T19:51:23.759Z,79.03
2018-10-05T19:53:58.751Z,78.26
2018-10-05T19:56:34.673Z,77.84
2018-10-05T19:59:09.010Z,78.43
2018-10-05T20:01:43.867Z,78.37
2018-10-05T20:04:18.235Z,78.34
2018-10-05T20:06:52.919Z,78.83
2018-10-05T20:09:27.415Z,78.76
2018-10-05T20:12:01.881Z,78.89
2018-10-05T20:14:36.584Z,79.08
2018-10-05T20:17:11.005Z,79.50
2018-10-05T20:19:45.402Z,79.45
2018-10-05T20:22:20.116Z,79.41
2018-10-05T20:24:54.914Z,79.27
2018-10-05T20:27:29.351Z,79.47
2018-10-05T20:30:04.374Z,80.26
2018-10-05T20:32:46.766Z,79.50
2018-10-05T20:35:22.781Z,79.52
2018-10-05T20:37:57.158Z,79.14
2018-10-05T20:40:31.986Z,79.48
2018-10-05T20:43:06.444Z,79.69
2018-10-05T20:45:40.938Z,79.33
2018-10-05T20:48:16.871Z,79.25
2018-10-05T20:50:51.268Z,79.18
2018-10-05T20:53:26.020Z,78.87
2018-10-05T20:56:01.121Z,79.67
2018-10-05T20:58:35.467Z,80.29
2018-10-05T21:01:09.893Z,80.27
2018-10-05T21:03:44.147Z,80.75
2018-10-05T21:06:18.556Z,81.52
2018-10-05T21:08:52.859Z,81.77
2018-10-05T21:11:27.181Z,81.99
2018-10-05T21:14:01.699Z,82.71
2018-10-05T21:16:36.387Z,81.58
2018-10-05T21:19:10.752Z,81.15
2018-10-05T21:21:45.443Z,81.62
2018-10-05T21:24:19.800Z,82.51
2018-10-05T21:26:54.251Z,81.38
2018-10-05T21:29:28.712Z,80.77
2018-10-05T21:32:03.080Z,80.33
2018-10-05T21:34:37.376Z,80.58
2018-10-05T21:37:11.861Z,80.25
2018-10-05T21:39:47.032Z,79.87
2018-10-05T21:42:21.796Z,79.68
2018-10-05T21:44:56.317Z,80.75
2018-10-05T21:47:31.109Z,81.16
2018-10-05T21:50:05.996Z,81.11
2018-10-05T21:52:40.808Z,80.50
2018-10-05T21:55:15.235Z,80.03
2018-10-05T21:57:49.701Z,80.61
2018-10-05T22:00:24.006Z,81.42
2018-10-05T22:02:58.433Z,81.07
2018-10-05T22:05:32.900Z,80.76
2018-10-05T22:08:08.248Z,80.36
2018-10-05T22:10:43.250Z,80.52
2018-10-05T22:13:17.736Z,81.72
2018-10-05T22:15:52.552Z,81.16
2018-10-05T22:18:27.288Z,80.50
2018-10-05T22:21:01.763Z,80.25
2018-10-05T22:23:36.739Z,80.33
2018-10-05T22:26:11.242Z,80.70
2018-10-05T22:28:46.588Z,80.58
2018-10-05T22:31:21.539Z,81.27
2018-10-05T22:33:56.768Z,81.63
2018-10-05T22:36:31.191Z,81.73
2018-10-05T22:39:07.048Z,81.76
2018-10-05T22:41:41.703Z,81.75
2018-10-05T22:44:16.213Z,82.48
2018-10-05T22:46:50.948Z,82.21
2018-10-05T22:49:25.248Z,81.69
2018-10-05T22:52:00.214Z,80.90
2018-10-05T22:54:34.527Z,80.94
2018-10-05T22:57:08.928Z,80.73
2018-10-05T22:59:43.256Z,81.24
2018-10-05T23:02:17.523Z,82.97
2018-10-05T23:04:52.075Z,82.59
2018-10-05T23:07:26.931Z,82.74
2018-10-05T23:10:01.388Z,83.92
2018-10-05T23:12:35.989Z,84.41
2018-10-05T23:15:10.372Z,84.06
2018-10-05T23:17:45.012Z,83.96
2018-10-05T23:20:19.412Z,83.74
2018-10-05T23:22:53.804Z,82.70
2018-10-05T23:25:28.344Z,82.18
2018-10-05T23:28:03.582Z,81.76
2018-10-05T23:30:38.540Z,82.19
2018-10-05T23:33:12.945Z,81.68
2018-10-05T23:35:47.568Z,81.82
2018-10-05T23:38:22.127Z,81.80
2018-10-05T23:41:00.600Z,82.25
2018-10-05T23:43:34.948Z,82.08
2018-10-05T23:46:09.471Z,82.54
2018-10-05T23:48:43.815Z,82.45
2018-10-05T23:51:18.236Z,81.75
2018-10-05T23:53:52.964Z,81.73
2018-10-05T23:56:27.726Z,81.28
2018-10-05T23:59:02.320Z,81.55
